Flight Track Log - Related Links

Times and Time Zones

All times are in EDT time to prevent confusion due to time zone crossing. See the C-FWFK flight status page for this flight to view local times or setup timezone preferences in your user account.

Time Position Orientation Groundspeed Altitude Reporting Facility
EDT Latitude Longitude Course Direction KTS MPH feet Rate Location/Type
Wed 02:39:00 PM 43.8622 -79.3700 251° West  Level Estimated
Wed 02:39:59 PM 43.9000 -79.1500 90° East 110 127 3,000  Level Toronto Center
Wed 02:40:59 PM 43.9000 -79.1167 90° East 120 138 2,900 250 Descending Toronto Center
Wed 02:41:59 PM 43.9000 -79.0833 90° East 110 127 3,500 550 Climbing Toronto Center
Wed 02:42:59 PM 43.9000 -79.0333 90° East 100 115 4,000 200 Climbing Toronto Center
Wed 02:43:59 PM 43.9167 -78.9833 65° Northeast 120 138 3,900 -33 Descending Toronto Center
Wed 02:45:00 PM 43.8622 -79.3700 90° East  Level Estimated
Wed 02:45:59 PM 43.9000 -78.9000 105° East 110 127 3,900  Level Toronto Center
Wed 02:46:59 PM 43.9167 -78.8667 55° Northeast 110 127 4,000 150 Climbing Toronto Center
Wed 02:47:59 PM 43.9167 -78.8167 90° East 110 127 4,200  Climbing Toronto Center
Wed 02:48:59 PM 43.8833 -78.8500 216° Southwest 100 115 4,000 -100 Descending Toronto Center
Wed 02:49:59 PM 43.9000 -78.8667 324° Northwest 80 92 4,000 -50 Level Toronto Center
Wed 02:50:59 PM 43.9167 -78.9000 305° West 80 92 3,900  Descending Toronto Center
Wed 02:51:59 PM 43.9167 -78.8500 90° East 90 104 4,000 50 Climbing Toronto Center
Wed 02:52:59 PM 43.9000 -78.8167 125° Southeast 110 127 4,000  Level Toronto Center
Wed 02:53:59 PM 43.9000 -78.8500 270° West 80 92 4,000 -33 Level Toronto Center
Wed 02:55:59 PM 43.9167 -78.8667 324° Northwest 70 81 3,900 25 Descending Toronto Center
Wed 02:57:59 PM 43.9000 -78.8500 144° Southeast 90 104 4,100 100 Climbing Toronto Center
Wed 02:58:59 PM 43.9167 -78.8667 324° Northwest 80 92 4,200 -100 Climbing Toronto Center
Wed 02:59:59 PM 43.9333 -78.8500 36° Northeast 90 104 3,900 -400 Descending Toronto Center
Wed 03:01:59 PM 43.9167 -78.7500 103° East 120 138 3,000 -333 Descending Toronto Center
Wed 03:02:59 PM 43.9000 -78.7000 115° Southeast 120 138 2,900 -202 Descending Toronto Center
Wed 03:06:56 PM 43.8667 -78.7000 264° West 70 81 2,000 -151 Descending Toronto Center
Wed 03:08:56 PM 43.8833 -78.7500 295° West 80 92 2,000 -24 Level Toronto Center
Wed 03:15:09 PM 43.9167 -78.9000 266° West 110 127 1,800 42 Descending Toronto Center
Wed 03:16:09 PM 43.9167 -78.9167 270° West 70 81 2,300 400 Climbing Toronto Center
Wed 03:18:09 PM 43.9167 -78.9667 270° West 80 92 3,000 200 Climbing Toronto Center
Wed 03:19:09 PM 43.8833 -78.9833 200° South 110 127 2,900 -50 Descending Toronto Center
Wed 03:20:00 PM 43.8650 -79.0976 266° West  Level FlightAware Approximate
Wed 03:20:09 PM 43.8667 -78.9833 180° South 90 104 2,900  Level Toronto Center
Wed 03:21:09 PM 43.8500 -78.9333 115° Southeast 100 115 2,900  Level Toronto Center
Wed 03:22:09 PM 43.8500 -78.9167 90° East 90 104 2,900 50 Level Toronto Center
Wed 03:23:09 PM 43.8333 -78.9000 144° Southeast 100 115 3,000 50 Climbing Toronto Center
Wed 03:24:09 PM 43.8333 -78.8500 90° East 100 115 3,000  Level Toronto Center
Wed 03:25:09 PM 43.8333 -78.8000 90° East 100 115 3,000 -50 Level Toronto Center
Wed 03:26:09 PM 43.8167 -78.7833 144° Southeast 100 115 2,900  Descending Toronto Center
Wed 03:29:09 PM 43.8667 -78.7000 287° West 80 92 3,000 -25 Climbing Toronto Center
Wed 03:30:09 PM 43.8667 -78.7333 270° West 70 81 2,800 -350 Descending Toronto Center
Wed 03:31:09 PM 43.8833 -78.7500 324° Northwest 70 81 2,300 -400 Descending Toronto Center
Wed 03:32:09 PM 43.8833 -78.7833 270° West 70 81 2,000 -300 Descending Toronto Center
Wed 03:33:09 PM 43.9000 -78.8000 324° Northwest 70 81 1,700 -150 Descending Toronto Center
Wed 03:34:09 PM 43.9000 -78.8167 270° West 70 81 1,700 158 Level Toronto Center
Wed 03:38:13 PM 43.9167 -78.9167 263° West 60 69 2,500 257 Climbing Toronto Center
Wed 03:39:13 PM 43.9167 -78.9333 270° West 70 81 3,000 300 Climbing Toronto Center
Wed 03:40:13 PM 43.9000 -78.9667 235° Southwest 90 104 3,100 -33 Climbing Toronto Center
Wed 03:42:13 PM 43.8500 -79.0167 216° Southwest 100 115 2,900 -20 Descending Toronto Center
Wed 03:45:13 PM 43.8000 -79.1000 270° West 90 104 3,000 50 Climbing Toronto Center
Wed 03:46:13 PM 43.7833 -79.1167 216° Southwest 90 104 3,100 50 Climbing Toronto Center
Wed 03:47:13 PM 43.7667 -79.1500 235° Southwest 90 104 3,100 -100 Level Toronto Center
Wed 03:49:13 PM 43.7333 -79.2000 227° Southwest 80 92 2,800 -233 Descending Toronto Center
Wed 03:53:13 PM 43.7833 -79.2833 270° West 80 92 1,700 -238 Descending Toronto Center
Wed 03:57:13 PM 43.8333 -79.3333 73° East 60 69 900 -200 Descending Toronto Center
Wed 03:58:00 PM 43.8500 -79.3667 270° West  Level FlightAware Approximate
Wed 04:02:00 PM 43.8622 -79.3700 73° East  Level Estimated

Login

Don't have an account? Register now (free) for customized features, flight alerts, and more!